Time;durP1;ratioP1;P1;durP2;ratioP2;P2;SDS_P1;SDS_P2;PMS_P1;PMS_P2;Temp;Humidity;BMP_temperature;BMP_pressure;BME280_temperature;BME280_humidity;BME280_pressure;Samples;Min_cycle;Max_cycle;Signal;HPM_P1;HPM_P2
2020/12/20 00:00:40;;;;;;;20.30;16.10;;;2.70;99.90;;;;;;5054684;28;20216;-57
2020/12/20 00:03:06;;;;;;;21.87;15.53;;;2.80;99.90;;;;;;5055378;28;20194;-54
2020/12/20 00:05:31;;;;;;;20.10;15.27;;;2.90;99.90;;;;;;5054128;28;20254;-56
2020/12/20 00:07:57;;;;;;;23.77;16.30;;;2.90;99.90;;;;;;5054196;28;20309;-53
2020/12/20 00:10:24;;;;;;;19.10;14.63;;;3.00;99.90;;;;;;5054338;28;20191;-58
2020/12/20 00:12:50;;;;;;;21.43;16.00;;;3.10;99.90;;;;;;5055186;28;20163;-51
2020/12/20 00:15:17;;;;;;;20.40;15.27;;;3.20;99.90;;;;;;5053984;28;20167;-52
2020/12/20 00:17:46;;;;;;;23.97;16.27;;;3.20;99.90;;;;;;5053832;28;20222;-55
2020/12/20 00:20:12;;;;;;;21.60;16.13;;;3.20;99.90;;;;;;5053687;28;20187;-51
2020/12/20 00:22:37;;;;;;;20.53;15.53;;;3.30;99.90;;;;;;5054208;28;20254;-50
2020/12/20 00:25:04;;;;;;;21.67;16.07;;;3.30;99.90;;;;;;5053990;28;20198;-54
2020/12/20 00:27:29;;;;;;;21.17;16.37;;;3.30;99.90;;;;;;5054662;28;20205;-57
2020/12/20 00:29:55;;;;;;;22.33;16.57;;;3.30;99.90;;;;;;5054983;28;20173;-51
2020/12/20 00:32:20;;;;;;;22.53;15.97;;;3.20;99.90;;;;;;5054424;28;20221;-54
2020/12/20 00:34:46;;;;;;;20.33;15.27;;;3.10;99.90;;;;;;5054440;28;20229;-55
2020/12/20 00:37:13;;;;;;;19.77;15.77;;;3.00;99.90;;;;;;5054741;28;20550;-55
2020/12/20 00:39:38;;;;;;;21.73;16.10;;;3.10;99.90;;;;;;5053872;28;20179;-55
2020/12/20 00:42:05;;;;;;;20.90;16.23;;;3.10;99.90;;;;;;5053776;28;20236;-54
2020/12/20 00:44:32;;;;;;;22.20;15.53;;;3.10;99.90;;;;;;5053789;28;20183;-59
2020/12/20 00:46:59;;;;;;;31.60;23.23;;;3.10;99.90;;;;;;5053879;28;20199;-53
2020/12/20 00:49:30;;;;;;;24.30;18.47;;;3.10;99.90;;;;;;5054207;28;20199;-50
2020/12/20 00:51:59;;;;;;;24.60;17.93;;;3.00;99.90;;;;;;5053772;28;20167;-52
2020/12/20 00:54:26;;;;;;;27.13;18.90;;;2.90;99.90;;;;;;5053524;28;20631;-57
2020/12/20 00:56:51;;;;;;;28.43;18.93;;;2.80;99.90;;;;;;5053358;28;20191;-50
2020/12/20 00:59:17;;;;;;;23.53;17.37;;;2.60;99.90;;;;;;5053537;28;20185;-51
2020/12/20 01:01:43;;;;;;;24.20;17.50;;;2.60;99.90;;;;;;5053511;28;20635;-54
2020/12/20 01:04:09;;;;;;;21.03;16.43;;;2.70;99.90;;;;;;5054151;28;20645;-58
2020/12/20 01:06:35;;;;;;;22.30;16.97;;;2.90;99.90;;;;;;5053616;28;20179;-51
2020/12/20 01:09:01;;;;;;;22.43;16.33;;;3.00;99.90;;;;;;5053894;28;20221;-55
2020/12/20 01:11:27;;;;;;;23.63;17.07;;;3.10;99.90;;;;;;5053578;28;20188;-50
2020/12/20 01:13:54;;;;;;;30.57;20.70;;;3.30;99.90;;;;;;5054126;28;20189;-51
2020/12/20 01:16:26;;;;;;;22.10;16.63;;;3.20;99.90;;;;;;5054992;28;20250;-50
2020/12/20 01:18:55;;;;;;;24.00;17.37;;;3.30;99.90;;;;;;5058829;28;20175;-59
2020/12/20 01:21:20;;;;;;;23.70;17.90;;;3.30;99.90;;;;;;5057861;28;20172;-51
2020/12/20 01:23:47;;;;;;;23.80;16.63;;;3.30;99.90;;;;;;5058466;28;20499;-50
2020/12/20 01:26:13;;;;;;;25.30;17.73;;;3.20;99.90;;;;;;5058468;28;20175;-49
2020/12/20 01:28:38;;;;;;;25.47;17.17;;;3.20;99.90;;;;;;5058699;28;20257;-51
2020/12/20 01:31:09;;;;;;;23.43;16.80;;;3.10;99.90;;;;;;5058183;28;20198;-53
2020/12/20 01:33:36;;;;;;;21.50;16.03;;;3.10;99.90;;;;;;5056868;28;20237;-50
2020/12/20 01:36:09;;;;;;;23.73;17.13;;;3.20;99.90;;;;;;5057134;28;20232;-56
2020/12/20 01:38:35;;;;;;;22.57;17.03;;;3.40;99.90;;;;;;5056556;28;20195;-53
2020/12/20 01:41:01;;;;;;;21.23;16.00;;;3.30;99.90;;;;;;5057413;28;20178;-54
2020/12/20 01:43:42;;;;;;;23.33;17.23;;;3.30;99.90;;;;;;5056812;28;20176;-54
2020/12/20 01:46:10;;;;;;;23.13;16.43;;;3.20;99.90;;;;;;5056516;28;20598;-53
2020/12/20 01:48:37;;;;;;;22.50;16.60;;;3.10;99.90;;;;;;5057193;28;20341;-50
2020/12/20 01:51:02;;;;;;;23.67;17.20;;;3.00;99.90;;;;;;5057404;28;20229;-56
2020/12/20 01:53:28;;;;;;;21.53;16.53;;;3.10;99.90;;;;;;5057094;28;20167;-50
2020/12/20 01:55:59;;;;;;;22.97;14.90;;;3.20;99.90;;;;;;5057571;28;20186;-55
2020/12/20 01:58:26;;;;;;;22.03;16.87;;;3.30;99.90;;;;;;5056450;28;20257;-51
2020/12/20 02:00:53;;;;;;;22.03;16.80;;;3.40;99.90;;;;;;5057562;28;20175;-53
2020/12/20 02:03:19;;;;;;;22.20;16.97;;;3.40;99.90;;;;;;5056412;28;20207;-51
2020/12/20 02:05:45;;;;;;;21.90;16.07;;;3.40;99.90;;;;;;5041719;28;20183;-59
2020/12/20 02:08:11;;;;;;;21.87;16.43;;;3.30;99.90;;;;;;5036796;28;20226;-58
2020/12/20 02:10:37;;;;;;;20.93;16.17;;;3.30;99.90;;;;;;5036594;28;20246;-50
2020/12/20 02:13:03;;;;;;;22.00;16.20;;;3.30;99.90;;;;;;5036266;28;20168;-51
2020/12/20 02:15:29;;;;;;;23.67;16.90;;;3.20;99.90;;;;;;5037351;28;20172;-51
2020/12/20 02:17:55;;;;;;;23.70;16.27;;;3.30;99.90;;;;;;5046147;28;20505;-50
2020/12/20 02:20:20;;;;;;;21.10;15.80;;;3.30;99.90;;;;;;5057392;28;20175;-51
2020/12/20 02:22:46;;;;;;;23.00;16.63;;;3.30;99.90;;;;;;5057018;28;20179;-55
2020/12/20 02:25:12;;;;;;;23.67;16.30;;;3.30;99.90;;;;;;5055893;28;20176;-59
2020/12/20 02:27:38;;;;;;;21.57;16.40;;;3.30;99.90;;;;;;5055518;28;20203;-57
2020/12/20 02:30:04;;;;;;;23.23;17.43;;;3.20;99.90;;;;;;5056206;28;20639;-51
2020/12/20 02:32:30;;;;;;;21.93;16.63;;;3.10;99.90;;;;;;5056453;28;20174;-55
2020/12/20 02:34:55;;;;;;;23.03;16.50;;;3.00;99.90;;;;;;5056197;28;20179;-50
2020/12/20 02:37:21;;;;;;;21.13;15.73;;;3.00;99.90;;;;;;5055724;28;20249;-57
2020/12/20 02:39:46;;;;;;;21.20;16.03;;;3.00;99.90;;;;;;5055569;28;20239;-55
2020/12/20 02:42:12;;;;;;;24.07;16.07;;;2.90;99.90;;;;;;5056285;28;20175;-58
2020/12/20 02:44:37;;;;;;;22.27;15.70;;;2.90;99.90;;;;;;5056162;28;20164;-51
2020/12/20 02:47:04;;;;;;;24.53;17.70;;;2.90;99.90;;;;;;5055951;28;20727;-53
2020/12/20 02:49:29;;;;;;;23.87;17.43;;;2.90;99.90;;;;;;5055898;28;20195;-50
2020/12/20 02:51:55;;;;;;;24.80;17.73;;;2.90;99.90;;;;;;5038411;28;20180;-57
2020/12/20 02:54:20;;;;;;;23.27;17.03;;;3.00;99.90;;;;;;5055665;28;20177;-59
2020/12/20 02:56:46;;;;;;;25.70;17.17;;;3.10;99.90;;;;;;5055340;28;20183;-51
2020/12/20 02:59:12;;;;;;;23.00;17.03;;;3.20;99.90;;;;;;5056405;28;20205;-50
2020/12/20 03:01:37;;;;;;;26.70;17.93;;;3.30;99.90;;;;;;5056277;28;20476;-50
2020/12/20 03:04:03;;;;;;;24.33;18.30;;;3.40;99.90;;;;;;5056329;28;20703;-50
2020/12/20 03:06:29;;;;;;;23.03;17.00;;;3.40;99.90;;;;;;5055517;28;20651;-57
2020/12/20 03:08:54;;;;;;;21.70;15.60;;;3.40;99.90;;;;;;5056051;28;20223;-53
2020/12/20 03:11:20;;;;;;;22.97;17.10;;;3.40;99.90;;;;;;5055132;28;20183;-58
2020/12/20 03:13:45;;;;;;;24.60;17.70;;;3.30;99.90;;;;;;5055738;28;20500;-50
2020/12/20 03:16:11;;;;;;;25.03;17.43;;;3.20;99.90;;;;;;5055629;28;20183;-50
2020/12/20 03:18:36;;;;;;;25.20;17.87;;;3.10;99.90;;;;;;5055672;28;20207;-52
2020/12/20 03:21:02;;;;;;;22.57;15.23;;;3.10;99.90;;;;;;5055938;28;20179;-53
2020/12/20 03:23:27;;;;;;;22.17;15.50;;;3.00;99.90;;;;;;5056652;28;20186;-51
2020/12/20 03:25:53;;;;;;;19.97;14.77;;;2.90;99.90;;;;;;5054943;28;20179;-58
2020/12/20 03:28:18;;;;;;;22.70;15.03;;;2.80;99.90;;;;;;5055399;28;20203;-54
2020/12/20 03:30:44;;;;;;;20.23;14.77;;;2.80;99.90;;;;;;5055169;28;20271;-53
2020/12/20 03:33:09;;;;;;;18.13;13.90;;;2.90;99.90;;;;;;5055138;28;20174;-54
2020/12/20 03:35:35;;;;;;;20.03;14.10;;;2.80;99.90;;;;;;5055380;28;20202;-52
2020/12/20 03:38:01;;;;;;;20.20;15.50;;;2.80;99.90;;;;;;5054497;28;20222;-56
2020/12/20 03:40:26;;;;;;;17.07;13.00;;;2.80;99.90;;;;;;5055491;28;20214;-53
2020/12/20 03:42:52;;;;;;;19.10;14.63;;;2.90;99.90;;;;;;5055591;28;20186;-50
2020/12/20 03:45:18;;;;;;;20.30;14.80;;;3.00;99.90;;;;;;5054663;28;20179;-52
2020/12/20 03:47:44;;;;;;;17.37;13.27;;;3.00;99.90;;;;;;5055032;28;20542;-50
2020/12/20 03:50:10;;;;;;;19.87;14.97;;;2.90;99.90;;;;;;5055258;28;20171;-60
2020/12/20 03:52:35;;;;;;;17.97;14.00;;;3.00;99.90;;;;;;5054907;28;20182;-53
2020/12/20 03:55:02;;;;;;;19.27;14.40;;;3.00;99.90;;;;;;5055139;28;20524;-51
2020/12/20 03:57:28;;;;;;;18.43;14.57;;;3.10;99.90;;;;;;5054973;28;20290;-50
2020/12/20 03:59:53;;;;;;;20.43;14.70;;;3.00;99.90;;;;;;5054484;28;20276;-51
2020/12/20 04:02:19;;;;;;;18.63;14.93;;;3.10;99.90;;;;;;5054636;28;20179;-54
2020/12/20 04:04:45;;;;;;;20.53;15.20;;;3.10;99.90;;;;;;5054509;28;20258;-54
2020/12/20 04:07:10;;;;;;;18.43;14.33;;;3.10;99.90;;;;;;5054648;28;20201;-52
2020/12/20 04:09:36;;;;;;;21.20;15.60;;;3.10;99.90;;;;;;5054691;28;20209;-52
2020/12/20 04:12:03;;;;;;;19.53;15.10;;;3.10;99.90;;;;;;5054490;28;20193;-50
2020/12/20 04:14:28;;;;;;;20.83;15.53;;;3.20;99.90;;;;;;5054395;28;20185;-54
2020/12/20 04:16:54;;;;;;;19.23;15.30;;;3.30;99.90;;;;;;5054288;28;20191;-52
2020/12/20 04:19:19;;;;;;;23.57;16.00;;;3.30;99.90;;;;;;5054435;28;20217;-56
2020/12/20 04:21:45;;;;;;;22.40;16.73;;;3.20;99.90;;;;;;5054038;28;20179;-53
2020/12/20 04:24:11;;;;;;;28.10;19.57;;;3.00;99.90;;;;;;5053813;28;20178;-55
2020/12/20 04:26:36;;;;;;;22.17;16.33;;;2.80;99.90;;;;;;5054612;28;20483;-54
2020/12/20 04:29:02;;;;;;;24.33;16.47;;;2.70;99.90;;;;;;5053944;28;20206;-59
2020/12/20 04:31:27;;;;;;;22.93;15.67;;;2.80;99.90;;;;;;5054333;28;20179;-58
2020/12/20 04:33:53;;;;;;;20.83;14.83;;;2.70;99.90;;;;;;5054511;28;20184;-59
2020/12/20 04:36:18;;;;;;;19.87;15.27;;;2.70;99.90;;;;;;5053824;28;20183;-57
2020/12/20 04:38:44;;;;;;;21.33;16.53;;;2.70;99.90;;;;;;5053583;28;20689;-51
2020/12/20 04:41:11;;;;;;;21.43;15.90;;;2.80;99.90;;;;;;5053726;28;20175;-54
2020/12/20 04:43:37;;;;;;;23.30;17.33;;;2.90;99.90;;;;;;5054378;28;20179;-55
2020/12/20 04:46:04;;;;;;;21.43;15.33;;;2.90;99.90;;;;;;5054082;28;20205;-50
2020/12/20 04:48:38;;;;;;;20.80;15.67;;;2.90;99.90;;;;;;5054261;28;20213;-51
2020/12/20 04:51:05;;;;;;;20.83;15.60;;;2.70;99.90;;;;;;5055187;28;20185;-53
2020/12/20 04:53:31;;;;;;;21.13;15.70;;;2.60;99.90;;;;;;5057654;28;20284;-56
2020/12/20 04:56:08;;;;;;;20.83;15.00;;;2.60;99.90;;;;;;5058541;28;20175;-56
2020/12/20 04:58:34;;;;;;;22.83;15.57;;;2.70;99.90;;;;;;5057969;28;20293;-54
2020/12/20 05:01:00;;;;;;;24.53;18.10;;;2.70;99.90;;;;;;5057550;28;20205;-50
2020/12/20 05:03:26;;;;;;;21.17;15.90;;;2.80;99.90;;;;;;5058795;28;20171;-52
2020/12/20 05:05:52;;;;;;;18.43;13.77;;;2.90;99.90;;;;;;5057157;28;20205;-55
2020/12/20 05:08:20;;;;;;;19.87;14.10;;;2.90;99.90;;;;;;5057907;28;20203;-49
2020/12/20 05:10:46;;;;;;;21.20;15.87;;;2.90;99.90;;;;;;5057566;28;20202;-54
2020/12/20 05:13:12;;;;;;;21.57;15.67;;;2.90;99.90;;;;;;5058183;28;20175;-50
2020/12/20 05:15:37;;;;;;;19.23;14.67;;;3.00;99.90;;;;;;5058576;28;20180;-58
2020/12/20 05:18:08;;;;;;;21.83;15.80;;;3.10;99.90;;;;;;5057999;28;20242;-58
2020/12/20 05:20:36;;;;;;;23.73;16.43;;;3.20;99.90;;;;;;5049876;28;20264;-59
2020/12/20 05:23:02;;;;;;;20.90;15.47;;;3.20;99.90;;;;;;5048033;28;20187;-50
2020/12/20 05:25:29;;;;;;;21.37;15.27;;;3.20;99.90;;;;;;5036414;28;20183;-50
2020/12/20 05:28:18;;;;;;;20.70;15.70;;;3.20;99.90;;;;;;5056082;28;20700;-52
2020/12/20 05:30:46;;;;;;;22.33;16.93;;;3.10;99.90;;;;;;5055243;28;20178;-51
2020/12/20 05:33:30;;;;;;;23.73;17.17;;;3.10;99.90;;;;;;5055924;28;20226;-54
2020/12/20 05:36:00;;;;;;;21.97;15.50;;;3.00;99.90;;;;;;5055943;28;20261;-54
2020/12/20 05:38:26;;;;;;;22.40;16.67;;;2.90;99.90;;;;;;5055789;28;20650;-50
2020/12/20 05:40:52;;;;;;;23.13;17.60;;;3.00;99.90;;;;;;5055879;28;20179;-58
2020/12/20 05:43:22;;;;;;;20.20;15.23;;;2.90;99.90;;;;;;5056404;28;20238;-51
2020/12/20 05:45:48;;;;;;;20.53;14.77;;;2.90;99.90;;;;;;5057582;28;20179;-54
2020/12/20 05:48:19;;;;;;;23.50;17.40;;;2.80;99.90;;;;;;5056736;28;20207;-50
2020/12/20 05:50:59;;;;;;;23.77;16.17;;;2.90;99.90;;;;;;5057492;28;20269;-52
2020/12/20 05:53:32;;;;;;;20.70;15.40;;;2.90;99.90;;;;;;5056705;28;20183;-56
2020/12/20 05:55:59;;;;;;;21.63;16.17;;;3.00;99.90;;;;;;5056799;28;20177;-53
2020/12/20 05:58:28;;;;;;;20.83;15.77;;;3.00;99.90;;;;;;5057516;28;20599;-54
2020/12/20 06:00:55;;;;;;;19.53;14.33;;;3.00;99.90;;;;;;5057011;28;20542;-50
2020/12/20 06:03:22;;;;;;;19.53;15.47;;;3.00;99.90;;;;;;5056741;28;20175;-53
2020/12/20 06:05:48;;;;;;;20.60;14.47;;;3.00;99.90;;;;;;5056774;28;20182;-55
2020/12/20 06:08:18;;;;;;;20.40;14.27;;;3.00;99.90;;;;;;5056206;28;20210;-53
2020/12/20 06:10:46;;;;;;;18.50;14.83;;;3.00;99.90;;;;;;5056990;28;20187;-55
2020/12/20 06:13:13;;;;;;;16.60;12.40;;;3.00;99.90;;;;;;5056709;28;20173;-52
2020/12/20 06:15:41;;;;;;;15.43;12.23;;;3.10;99.90;;;;;;5057097;28;20261;-50
2020/12/20 06:18:12;;;;;;;15.40;11.90;;;3.20;99.90;;;;;;5056652;28;20768;-51
2020/12/20 06:20:58;;;;;;;17.00;12.67;;;3.30;99.90;;;;;;5056618;28;20175;-56
2020/12/20 06:23:34;;;;;;;15.77;12.03;;;3.20;99.90;;;;;;5056571;28;20433;-50
2020/12/20 06:26:02;;;;;;;13.70;11.00;;;3.10;99.90;;;;;;5056407;28;20203;-53
2020/12/20 06:28:30;;;;;;;13.37;10.60;;;2.90;99.90;;;;;;5056499;28;20207;-51
2020/12/20 06:30:57;;;;;;;16.07;13.87;;;2.90;99.90;;;;;;5056258;28;20175;-58
2020/12/20 06:33:34;;;;;;;14.40;11.57;;;2.90;99.90;;;;;;5056848;28;20673;-53
2020/12/20 06:36:02;;;;;;;17.90;14.40;;;3.00;99.90;;;;;;5056229;28;20638;-54
2020/12/20 06:38:28;;;;;;;22.10;18.70;;;3.00;99.90;;;;;;5055607;28;20211;-53
2020/12/20 06:40:53;;;;;;;13.83;10.80;;;2.90;99.90;;;;;;5056486;28;20190;-53
2020/12/20 06:43:37;;;;;;;13.37;10.47;;;2.90;99.90;;;;;;5056706;28;20253;-50
2020/12/20 06:46:05;;;;;;;11.47;9.30;;;3.00;99.90;;;;;;5055864;28;20209;-51
2020/12/20 06:48:35;;;;;;;10.47;8.87;;;3.00;99.90;;;;;;5056136;28;20261;-50
2020/12/20 06:51:06;;;;;;;11.53;9.10;;;3.00;99.90;;;;;;5055912;28;20187;-55
2020/12/20 06:53:52;;;;;;;11.27;9.13;;;2.90;99.90;;;;;;5056036;28;20197;-50
2020/12/20 06:56:22;;;;;;;10.73;8.67;;;2.90;99.90;;;;;;5055804;28;20175;-55
2020/12/20 06:58:48;;;;;;;11.63;9.43;;;3.00;99.90;;;;;;5056002;28;20199;-58
2020/12/20 07:01:34;;;;;;;9.67;7.87;;;3.00;99.90;;;;;;5055140;28;20534;-55
2020/12/20 07:03:59;;;;;;;11.80;8.43;;;3.10;99.90;;;;;;5038242;28;20416;-49
2020/12/20 07:06:25;;;;;;;10.93;8.30;;;3.20;99.90;;;;;;5056119;28;20413;-51
2020/12/20 07:08:59;;;;;;;9.87;7.80;;;3.20;99.90;;;;;;5055001;28;20252;-56
2020/12/20 07:11:26;;;;;;;10.13;7.80;;;3.20;99.90;;;;;;5055046;28;20198;-58
2020/12/20 07:13:54;;;;;;;10.10;8.20;;;3.20;99.90;;;;;;5054696;28;20175;-53
2020/12/20 07:16:22;;;;;;;9.57;7.67;;;3.20;99.90;;;;;;5055962;28;20258;-51
2020/12/20 07:18:50;;;;;;;10.23;8.50;;;3.20;99.90;;;;;;5056268;28;20202;-53
2020/12/20 07:21:19;;;;;;;10.03;8.17;;;3.20;99.90;;;;;;5056432;28;20233;-50
2020/12/20 07:23:50;;;;;;;10.87;8.87;;;3.20;99.90;;;;;;5055367;28;20207;-51
2020/12/20 07:26:15;;;;;;;11.00;8.60;;;3.10;99.90;;;;;;5054747;28;20519;-53
2020/12/20 07:28:41;;;;;;;10.63;8.50;;;2.80;99.90;;;;;;5055286;28;20207;-50
2020/12/20 07:31:19;;;;;;;10.57;8.47;;;2.60;99.90;;;;;;5054990;28;20647;-54
2020/12/20 07:33:45;;;;;;;11.97;9.13;;;2.30;99.90;;;;;;5055343;28;20401;-53
2020/12/20 07:36:11;;;;;;;9.87;8.33;;;2.30;99.90;;;;;;5054778;28;20202;-54
2020/12/20 07:38:37;;;;;;;11.67;8.60;;;2.40;99.90;;;;;;5054569;28;20497;-53
2020/12/20 07:41:12;;;;;;;11.03;8.90;;;2.50;99.90;;;;;;5055113;28;20646;-51
2020/12/20 07:43:38;;;;;;;12.03;9.20;;;2.60;99.90;;;;;;5054886;28;20182;-54
2020/12/20 07:46:06;;;;;;;11.20;8.57;;;2.70;99.90;;;;;;5055099;28;20175;-56
2020/12/20 07:48:31;;;;;;;11.50;8.80;;;2.80;99.90;;;;;;5055123;28;20195;-56
2020/12/20 07:51:17;;;;;;;11.60;9.07;;;2.80;99.90;;;;;;5054638;28;20201;-55
2020/12/20 07:53:51;;;;;;;12.70;9.70;;;2.80;99.90;;;;;;5054556;28;20708;-52
2020/12/20 07:56:27;;;;;;;12.70;10.07;;;2.60;99.90;;;;;;5054455;28;20534;-51
2020/12/20 07:58:55;;;;;;;12.43;9.40;;;2.50;99.90;;;;;;5055265;28;20507;-53
2020/12/20 08:01:21;;;;;;;13.60;11.00;;;2.50;99.90;;;;;;5054435;28;20171;-51
2020/12/20 08:03:47;;;;;;;13.93;10.90;;;2.40;99.90;;;;;;5055162;28;20289;-55
2020/12/20 08:06:15;;;;;;;11.63;9.17;;;2.30;99.90;;;;;;5054625;28;20179;-55
2020/12/20 08:08:41;;;;;;;19.50;14.77;;;2.30;99.90;;;;;;5053789;28;20199;-52
2020/12/20 08:11:18;;;;;;;29.43;23.13;;;2.40;99.90;;;;;;5055283;28;20195;-51
2020/12/20 08:13:58;;;;;;;13.27;11.00;;;2.60;99.90;;;;;;5055147;28;20183;-54
2020/12/20 08:16:29;;;;;;;14.13;10.83;;;2.70;99.90;;;;;;5054229;28;20549;-54
2020/12/20 08:19:05;;;;;;;15.83;12.03;;;2.80;99.90;;;;;;5054750;28;20244;-58
2020/12/20 08:21:46;;;;;;;13.57;10.30;;;2.80;99.90;;;;;;5054493;28;20398;-50
2020/12/20 08:24:12;;;;;;;13.23;10.57;;;2.60;99.90;;;;;;5053793;28;20198;-50
2020/12/20 08:26:39;;;;;;;14.63;11.23;;;2.50;99.90;;;;;;5053333;28;20178;-50
2020/12/20 08:29:05;;;;;;;13.40;10.37;;;2.50;99.90;;;;;;5054461;28;20195;-50
2020/12/20 08:31:34;;;;;;;13.83;10.50;;;2.50;99.90;;;;;;5052628;28;20241;-51
2020/12/20 08:34:01;;;;;;;14.07;10.80;;;2.60;99.90;;;;;;5033903;28;20179;-54
2020/12/20 08:36:27;;;;;;;15.00;11.23;;;2.70;99.90;;;;;;5006100;28;20171;-52
2020/12/20 08:38:54;;;;;;;15.93;11.83;;;2.80;99.90;;;;;;5053709;28;20250;-52
2020/12/20 08:41:24;;;;;;;14.43;11.40;;;2.70;99.90;;;;;;5054588;28;20199;-49
2020/12/20 08:44:10;;;;;;;14.00;11.00;;;2.70;99.90;;;;;;5054099;28;20597;-49
2020/12/20 08:46:42;;;;;;;14.33;11.67;;;2.70;99.90;;;;;;5053650;28;20183;-57
2020/12/20 08:49:14;;;;;;;14.30;11.27;;;2.70;99.90;;;;;;5050732;28;20217;-51
2020/12/20 08:51:40;;;;;;;12.77;10.37;;;2.60;99.90;;;;;;5052217;28;20626;-54
2020/12/20 08:54:06;;;;;;;12.60;9.50;;;2.40;99.90;;;;;;5051374;28;20168;-52
2020/12/20 08:56:32;;;;;;;17.27;13.43;;;2.40;99.90;;;;;;5052741;28;20662;-54
2020/12/20 08:58:58;;;;;;;15.43;12.57;;;2.40;99.90;;;;;;5053757;28;20199;-50
2020/12/20 09:01:41;;;;;;;20.67;15.83;;;2.40;99.90;;;;;;5052955;28;20685;-53
2020/12/20 09:04:10;;;;;;;19.13;14.47;;;2.60;99.90;;;;;;5049941;28;20189;-54
2020/12/20 09:06:36;;;;;;;13.77;10.50;;;2.50;99.90;;;;;;5053289;28;20262;-55
2020/12/20 09:09:02;;;;;;;13.40;11.00;;;2.50;99.90;;;;;;5053387;28;20238;-56
2020/12/20 09:11:27;;;;;;;13.97;11.20;;;2.50;99.90;;;;;;5053273;28;20221;-55
2020/12/20 09:13:53;;;;;;;16.87;12.13;;;2.60;99.90;;;;;;5052260;28;20191;-57
2020/12/20 09:16:18;;;;;;;13.60;9.57;;;2.50;99.90;;;;;;5053248;28;20167;-50
2020/12/20 09:18:44;;;;;;;14.73;11.03;;;2.60;99.90;;;;;;5052946;28;20191;-56
2020/12/20 09:21:21;;;;;;;13.70;10.93;;;2.70;99.90;;;;;;5028883;28;20203;-52
2020/12/20 09:23:57;;;;;;;14.13;12.00;;;2.80;99.90;;;;;;5032992;28;20217;-55
2020/12/20 09:26:23;;;;;;;16.43;13.00;;;3.00;99.90;;;;;;5053530;28;20236;-55
2020/12/20 09:28:49;;;;;;;15.47;12.40;;;3.30;99.90;;;;;;5051398;28;20627;-50
2020/12/20 09:31:18;;;;;;;15.47;12.47;;;3.40;99.90;;;;;;5051540;28;20512;-50
2020/12/20 09:33:48;;;;;;;13.60;10.50;;;3.40;99.90;;;;;;5055366;28;20167;-53
2020/12/20 09:36:23;;;;;;;16.77;13.87;;;3.50;99.90;;;;;;5052324;28;20179;-52
2020/12/20 09:38:55;;;;;;;16.37;13.37;;;3.60;99.90;;;;;;5056432;28;20225;-51
2020/12/20 09:41:22;;;;;;;12.93;10.20;;;3.50;99.90;;;;;;5058197;28;20167;-54
2020/12/20 09:43:50;;;;;;;16.33;13.80;;;3.20;99.90;;;;;;5046447;28;20184;-50
2020/12/20 09:46:25;;;;;;;13.47;10.43;;;3.00;99.90;;;;;;5037192;28;20635;-51
2020/12/20 09:48:52;;;;;;;13.83;11.20;;;3.00;99.90;;;;;;5037897;28;20273;-51
2020/12/20 09:51:18;;;;;;;14.50;11.23;;;2.80;99.90;;;;;;5037354;28;20202;-50
2020/12/20 09:53:45;;;;;;;13.87;10.70;;;2.80;99.90;;;;;;5037055;28;20183;-53
2020/12/20 09:56:12;;;;;;;12.57;9.83;;;2.80;99.90;;;;;;5050080;28;20175;-57
2020/12/20 09:58:38;;;;;;;14.27;10.80;;;2.80;99.90;;;;;;5057829;28;20213;-49
2020/12/20 10:01:04;;;;;;;13.53;10.47;;;2.90;99.90;;;;;;5056472;28;20179;-50
2020/12/20 10:03:30;;;;;;;13.27;10.63;;;2.90;99.90;;;;;;5056894;28;20289;-53
2020/12/20 10:05:59;;;;;;;13.00;10.37;;;3.00;99.90;;;;;;5055736;28;20195;-51
2020/12/20 10:08:26;;;;;;;13.77;11.13;;;3.00;99.90;;;;;;5055803;28;20306;-50
2020/12/20 10:10:52;;;;;;;11.63;9.27;;;2.90;99.90;;;;;;5055734;28;20186;-51
2020/12/20 10:13:18;;;;;;;18.10;12.20;;;2.90;99.90;;;;;;5055263;28;20194;-52
2020/12/20 10:15:44;;;;;;;10.93;8.93;;;2.90;99.90;;;;;;5055809;28;20183;-51
2020/12/20 10:18:10;;;;;;;11.37;9.53;;;2.90;99.90;;;;;;5056646;28;20417;-49
2020/12/20 10:20:36;;;;;;;14.00;9.70;;;2.90;99.90;;;;;;5054781;28;20284;-56
2020/12/20 10:23:01;;;;;;;12.07;8.20;;;2.90;99.90;;;;;;5056386;28;20631;-49
2020/12/20 10:25:28;;;;;;;10.50;8.70;;;2.90;99.90;;;;;;5055827;28;20186;-49
2020/12/20 10:27:54;;;;;;;14.10;11.00;;;3.00;99.90;;;;;;5056875;28;20207;-53
2020/12/20 10:30:20;;;;;;;13.90;10.20;;;3.10;99.90;;;;;;5062845;28;20190;-50
2020/12/20 10:32:47;;;;;;;12.47;10.30;;;3.10;99.90;;;;;;5054275;28;20191;-51
2020/12/20 10:35:13;;;;;;;18.43;14.67;;;3.10;99.90;;;;;;5055335;28;20171;-54
2020/12/20 10:37:39;;;;;;;28.80;21.90;;;3.00;99.90;;;;;;5054879;28;20244;-58
2020/12/20 10:40:05;;;;;;;13.57;10.43;;;2.90;99.90;;;;;;5056008;28;20171;-51
2020/12/20 10:42:30;;;;;;;11.03;8.90;;;3.00;99.90;;;;;;5054635;28;20184;-55
2020/12/20 10:44:56;;;;;;;12.57;9.03;;;3.10;99.90;;;;;;5051213;28;20186;-50
2020/12/20 10:47:25;;;;;;;12.50;9.70;;;3.00;99.90;;;;;;5054971;28;20717;-51
2020/12/20 10:49:51;;;;;;;11.60;8.57;;;2.90;99.90;;;;;;5053275;28;20211;-55
2020/12/20 10:52:17;;;;;;;11.67;9.00;;;2.90;99.90;;;;;;5049840;28;20180;-53
2020/12/20 10:54:44;;;;;;;10.13;8.27;;;3.10;99.90;;;;;;5036192;28;20211;-55
2020/12/20 10:57:09;;;;;;;9.03;7.20;;;3.20;99.90;;;;;;5047076;28;20234;-50
2020/12/20 10:59:35;;;;;;;8.67;6.90;;;3.40;99.90;;;;;;5052960;28;20214;-56
2020/12/20 11:02:00;;;;;;;9.27;7.50;;;3.30;99.90;;;;;;5053332;28;20269;-51
2020/12/20 11:04:26;;;;;;;9.57;7.50;;;3.30;99.90;;;;;;5051587;28;20280;-53
2020/12/20 11:06:56;;;;;;;8.00;6.53;;;3.40;99.90;;;;;;5050541;28;20210;-52
2020/12/20 11:09:25;;;;;;;9.87;7.77;;;3.40;99.90;;;;;;5055495;28;20325;-52
2020/12/20 11:11:51;;;;;;;9.17;7.30;;;3.50;99.90;;;;;;5049801;28;20646;-53
2020/12/20 11:14:17;;;;;;;9.17;6.80;;;3.70;99.90;;;;;;5053921;28;20516;-52
2020/12/20 11:16:44;;;;;;;9.87;8.00;;;3.70;99.90;;;;;;5050209;28;20654;-58
2020/12/20 11:19:10;;;;;;;9.00;7.00;;;3.70;99.90;;;;;;5051556;28;20187;-51
2020/12/20 11:21:36;;;;;;;9.57;7.60;;;3.80;99.90;;;;;;5051487;28;20266;-52
2020/12/20 11:24:02;;;;;;;9.53;7.27;;;3.90;99.90;;;;;;5050899;28;20195;-56
2020/12/20 11:26:28;;;;;;;9.07;7.47;;;3.90;99.90;;;;;;5054839;28;20187;-54
2020/12/20 11:28:54;;;;;;;17.23;13.73;;;3.90;99.90;;;;;;5054148;28;20198;-53
2020/12/20 11:31:22;;;;;;;12.57;10.93;;;3.90;99.90;;;;;;5053835;28;20179;-58
2020/12/20 11:33:49;;;;;;;10.27;8.17;;;4.00;99.90;;;;;;5051955;28;20183;-49
2020/12/20 11:36:20;;;;;;;9.20;7.80;;;4.00;99.90;;;;;;5052703;28;20175;-49
2020/12/20 11:38:46;;;;;;;9.70;7.90;;;4.00;99.90;;;;;;5054612;28;20713;-53
2020/12/20 11:41:12;;;;;;;9.20;7.50;;;4.10;99.90;;;;;;5046149;28;20225;-52
2020/12/20 11:43:38;;;;;;;8.27;6.97;;;3.90;99.90;;;;;;5051441;28;20191;-55
2020/12/20 11:46:04;;;;;;;9.10;7.43;;;3.80;99.90;;;;;;5053411;28;20182;-53
2020/12/20 11:48:29;;;;;;;8.93;7.17;;;3.80;99.90;;;;;;5053646;28;20207;-54
2020/12/20 11:50:56;;;;;;;8.10;7.00;;;3.80;99.90;;;;;;5052556;28;20182;-54
2020/12/20 11:53:22;;;;;;;8.23;7.30;;;3.90;99.90;;;;;;5053694;28;20182;-56
2020/12/20 11:55:47;;;;;;;9.67;7.73;;;4.00;99.90;;;;;;5043942;28;20175;-51
2020/12/20 11:58:16;;;;;;;8.73;7.43;;;3.90;99.90;;;;;;5041428;28;20278;-50
2020/12/20 12:00:43;;;;;;;9.23;7.57;;;3.90;99.90;;;;;;5038415;28;20171;-54
2020/12/20 12:03:10;;;;;;;9.83;7.80;;;3.90;99.90;;;;;;5054126;28;20270;-51
2020/12/20 12:05:37;;;;;;;10.00;7.27;;;4.00;99.90;;;;;;5054319;28;20639;-50
2020/12/20 12:08:03;;;;;;;14.33;9.23;;;4.00;99.90;;;;;;5054572;28;20257;-54
2020/12/20 12:10:28;;;;;;;8.23;7.13;;;4.10;99.90;;;;;;5053970;28;20659;-53
2020/12/20 12:12:54;;;;;;;10.40;8.30;;;4.10;99.90;;;;;;5053342;28;20190;-53
2020/12/20 12:15:19;;;;;;;9.57;7.77;;;4.10;99.90;;;;;;5053755;28;20194;-53
2020/12/20 12:17:45;;;;;;;10.20;8.27;;;4.10;99.90;;;;;;5051401;28;20579;-52
2020/12/20 12:20:11;;;;;;;8.80;7.23;;;4.00;99.90;;;;;;5053805;28;20689;-55
2020/12/20 12:22:36;;;;;;;9.13;7.50;;;4.20;99.90;;;;;;5052864;28;20213;-53
2020/12/20 12:25:02;;;;;;;9.40;7.30;;;4.30;99.90;;;;;;5052523;28;20226;-49
2020/12/20 12:27:28;;;;;;;9.23;7.77;;;4.40;99.90;;;;;;5053235;28;20222;-54
2020/12/20 12:29:53;;;;;;;10.10;7.67;;;4.50;99.90;;;;;;5053011;28;20194;-49
2020/12/20 12:32:19;;;;;;;9.63;7.80;;;4.40;99.90;;;;;;5053588;28;20191;-53
2020/12/20 12:34:44;;;;;;;8.87;7.60;;;4.40;99.90;;;;;;5053943;28;20626;-55
2020/12/20 12:37:10;;;;;;;9.57;7.60;;;4.50;99.90;;;;;;5047890;28;20207;-55
2020/12/20 12:39:35;;;;;;;9.23;7.60;;;4.60;99.90;;;;;;5003384;28;20270;-51
2020/12/20 12:42:05;;;;;;;10.60;8.73;;;4.70;99.90;;;;;;5051180;28;20329;-49